createdAt,value
2022-08-17T00:01:35.767Z,27.70
2022-08-17T00:04:19.124Z,26.13
2022-08-17T00:06:45.892Z,28.85
2022-08-17T00:09:18.266Z,26.38
2022-08-17T00:12:41.996Z,28.50
2022-08-17T00:14:36.074Z,27.13
2022-08-17T00:17:04.647Z,27.60
2022-08-17T00:19:32.670Z,26.10
2022-08-17T00:22:35.241Z,26.30
2022-08-17T00:24:47.462Z,24.90
2022-08-17T00:27:13.963Z,25.83
2022-08-17T00:29:40.574Z,26.47
2022-08-17T00:33:12.481Z,28.48
2022-08-17T00:34:53.736Z,26.20
2022-08-17T00:37:20.444Z,27.63
2022-08-17T00:39:47.043Z,27.95
2022-08-17T00:42:16.328Z,26.57
2022-08-17T00:44:42.903Z,27.25
2022-08-17T00:47:09.478Z,26.88
2022-08-17T00:49:35.966Z,25.73
2022-08-17T00:52:11.708Z,26.77
2022-08-17T00:54:42.484Z,26.53
2022-08-17T00:57:14.100Z,31.73
2022-08-17T01:00:02.384Z,30.58
2022-08-17T01:02:34.905Z,30.20
2022-08-17T01:05:09.508Z,33.80
2022-08-17T01:07:37.821Z,28.90
2022-08-17T01:10:08.909Z,28.50
2022-08-17T01:12:56.642Z,28.08
2022-08-17T01:15:23.527Z,28.90
2022-08-17T01:17:50.308Z,31.70
2022-08-17T01:20:16.909Z,31.33
2022-08-17T01:22:43.488Z,30.10
2022-08-17T01:25:12.623Z,33.63
2022-08-17T01:27:39.135Z,31.10
2022-08-17T01:30:56.628Z,31.13
2022-08-17T01:32:56.780Z,30.33
2022-08-17T01:35:23.295Z,30.85
2022-08-17T01:37:50.106Z,30.45
2022-08-17T01:40:28.965Z,30.15
2022-08-17T01:42:58.924Z,28.88
2022-08-17T01:45:33.030Z,26.90
2022-08-17T01:48:00.503Z,27.60
2022-08-17T01:50:30.193Z,27.25
2022-08-17T01:53:01.939Z,25.63
2022-08-17T01:55:54.059Z,24.00
2022-08-17T01:58:21.438Z,27.33
2022-08-17T02:01:00.777Z,26.10
2022-08-17T02:03:28.726Z,26.60
2022-08-17T02:05:55.686Z,29.27
2022-08-17T02:08:39.245Z,27.08
2022-08-17T02:11:14.658Z,26.27
2022-08-17T02:13:42.107Z,26.33
2022-08-17T02:16:08.619Z,32.17
2022-08-17T02:18:35.120Z,30.42
2022-08-17T02:21:02.138Z,28.85
2022-08-17T02:23:32.354Z,29.93
2022-08-17T02:26:00.625Z,32.42
2022-08-17T02:28:28.497Z,29.77
2022-08-17T02:31:01.866Z,26.38
2022-08-17T02:33:41.598Z,28.08
2022-08-17T02:36:12.203Z,25.40
2022-08-17T02:38:40.586Z,28.23
2022-08-17T02:41:08.042Z,28.58
2022-08-17T02:43:34.927Z,27.55
2022-08-17T02:46:01.464Z,33.70
2022-08-17T02:48:31.427Z,26.70
2022-08-17T02:50:59.277Z,29.02
2022-08-17T02:53:26.084Z,27.42
2022-08-17T02:55:53.253Z,26.83
2022-08-17T02:58:35.075Z,26.65
2022-08-17T03:01:06.661Z,24.90
2022-08-17T03:03:34.660Z,26.13
2022-08-17T03:06:01.542Z,27.95
2022-08-17T03:08:28.883Z,28.58
2022-08-17T03:10:55.606Z,26.05
2022-08-17T03:13:22.991Z,27.60
2022-08-17T03:15:50.541Z,27.33
2022-08-17T03:18:24.513Z,26.15
2022-08-17T03:20:57.626Z,26.55
2022-08-17T03:23:25.406Z,27.30
2022-08-17T03:25:53.787Z,27.97
2022-08-17T03:28:21.779Z,26.30
2022-08-17T03:30:48.988Z,24.48
2022-08-17T03:33:16.213Z,25.38
2022-08-17T03:35:43.325Z,26.63
2022-08-17T03:38:11.938Z,25.77
2022-08-17T03:40:56.940Z,25.00
2022-08-17T03:43:28.094Z,24.95
2022-08-17T03:46:26.892Z,24.30
2022-08-17T03:49:13.995Z,24.63
2022-08-17T03:51:59.207Z,26.00
2022-08-17T03:54:44.048Z,27.13
2022-08-17T03:57:11.713Z,26.30
2022-08-17T03:59:38.854Z,24.17
2022-08-17T04:02:13.445Z,22.58
2022-08-17T04:04:40.273Z,21.27
2022-08-17T04:07:07.725Z,23.23
2022-08-17T04:09:34.650Z,25.02
2022-08-17T04:12:04.799Z,20.05
2022-08-17T04:14:37.856Z,20.75
2022-08-17T04:17:19.587Z,20.87
2022-08-17T04:19:46.577Z,18.77
2022-08-17T04:22:30.132Z,19.05
2022-08-17T04:24:59.753Z,17.67
2022-08-17T04:27:26.276Z,17.33
2022-08-17T04:29:54.714Z,18.47
2022-08-17T04:33:05.011Z,17.45
2022-08-17T04:35:10.014Z,17.38
2022-08-17T04:37:36.503Z,16.88
2022-08-17T04:40:22.875Z,16.15
2022-08-17T04:43:10.278Z,16.93
2022-08-17T04:45:54.995Z,15.73
2022-08-17T04:48:35.255Z,16.58
2022-08-17T04:51:05.618Z,15.20
2022-08-17T04:53:32.121Z,16.25
2022-08-17T04:55:59.120Z,16.50
2022-08-17T04:58:25.641Z,16.55
2022-08-17T05:00:52.740Z,15.63
2022-08-17T05:03:19.396Z,16.60
2022-08-17T05:05:52.118Z,17.58
2022-08-17T05:08:20.259Z,18.13
2022-08-17T05:10:48.353Z,21.13
2022-08-17T05:13:18.115Z,22.13
2022-08-17T05:15:47.766Z,18.83
2022-08-17T05:18:15.525Z,23.85
2022-08-17T05:20:43.307Z,21.20
2022-08-17T05:23:13.933Z,22.65
2022-08-17T05:25:47.393Z,25.90
2022-08-17T05:28:16.021Z,24.60
2022-08-17T05:30:43.758Z,25.58
2022-08-17T05:33:14.575Z,23.50
2022-08-17T05:35:44.395Z,25.27
2022-08-17T05:38:10.978Z,23.83
2022-08-17T05:40:38.385Z,22.67
2022-08-17T05:43:09.049Z,24.40
2022-08-17T05:45:55.245Z,22.43
2022-08-17T05:48:39.612Z,24.52
2022-08-17T05:51:15.493Z,20.35
2022-08-17T05:53:56.978Z,22.52
2022-08-17T05:57:01.004Z,19.83
2022-08-17T05:59:46.350Z,19.13
2022-08-17T06:02:31.356Z,18.08
2022-08-17T06:05:16.388Z,18.05
2022-08-17T06:07:57.678Z,17.42
2022-08-17T06:10:30.971Z,17.77
2022-08-17T06:13:18.819Z,17.67
2022-08-17T06:16:00.207Z,14.75
2022-08-17T06:18:31.385Z,16.50
2022-08-17T06:21:02.880Z,14.75
2022-08-17T06:24:05.360Z,14.13
2022-08-17T06:26:38.541Z,14.50
2022-08-17T06:29:28.947Z,14.98
2022-08-17T06:31:55.439Z,13.07
2022-08-17T06:34:21.949Z,15.55
2022-08-17T06:37:06.197Z,14.25
2022-08-17T06:39:57.274Z,11.63
2022-08-17T06:42:55.124Z,11.90
2022-08-17T06:46:16.983Z,12.88
2022-08-17T06:48:49.122Z,12.65
2022-08-17T06:51:22.811Z,12.75
2022-08-17T06:54:02.427Z,12.07
2022-08-17T06:56:54.446Z,12.60
2022-08-17T06:59:30.431Z,11.73
2022-08-17T07:03:02.681Z,12.98
2022-08-17T07:05:20.560Z,11.07
2022-08-17T07:08:03.844Z,12.63
2022-08-17T07:10:52.707Z,12.80
2022-08-17T07:13:51.200Z,12.25
2022-08-17T07:16:42.286Z,11.30
2022-08-17T07:19:11.013Z,11.05
2022-08-17T07:22:10.684Z,13.00
2022-08-17T07:24:58.540Z,12.75
2022-08-17T07:27:30.683Z,12.88
2022-08-17T07:30:04.658Z,12.98
2022-08-17T07:32:41.342Z,12.43
2022-08-17T07:35:18.543Z,15.67
2022-08-17T07:38:24.800Z,14.45
2022-08-17T07:40:57.673Z,14.82
2022-08-17T07:43:29.529Z,13.77
2022-08-17T07:46:36.082Z,14.30
2022-08-17T07:49:07.475Z,14.70
2022-08-17T07:52:24.807Z,15.93
2022-08-17T07:54:52.108Z,16.88
2022-08-17T07:57:29.400Z,17.80
2022-08-17T07:59:59.465Z,16.02
2022-08-17T08:02:38.657Z,16.83
2022-08-17T08:05:12.406Z,17.58
2022-08-17T08:07:56.841Z,17.27
2022-08-17T08:10:38.408Z,18.90
2022-08-17T08:13:24.153Z,17.95
2022-08-17T08:15:54.790Z,18.07
2022-08-17T08:18:38.748Z,19.88
2022-08-17T08:21:21.871Z,19.98
2022-08-17T08:23:59.233Z,20.00
2022-08-17T08:26:37.444Z,17.55
2022-08-17T08:29:41.700Z,19.40
2022-08-17T08:32:13.410Z,21.40
2022-08-17T08:35:03.613Z,15.60
2022-08-17T08:37:57.739Z,19.33
2022-08-17T08:40:36.385Z,18.23
2022-08-17T08:43:36.335Z,16.70
2022-08-17T08:46:19.650Z,17.48
2022-08-17T08:49:11.911Z,15.23
2022-08-17T08:51:55.671Z,14.55
2022-08-17T08:54:34.990Z,14.18
2022-08-17T08:57:25.366Z,14.73
2022-08-17T09:00:02.037Z,13.77
2022-08-17T09:02:40.543Z,14.55
2022-08-17T09:05:14.686Z,12.77
2022-08-17T09:08:01.190Z,13.10
2022-08-17T09:10:39.094Z,13.17
2022-08-17T09:13:39.256Z,13.23
2022-08-17T09:16:15.940Z,12.48
2022-08-17T09:19:01.264Z,13.88
2022-08-17T09:21:52.675Z,13.50
2022-08-17T09:24:37.269Z,19.80
2022-08-17T09:27:37.640Z,21.75
2022-08-17T09:30:10.826Z,19.77
2022-08-17T09:32:41.461Z,19.85
2022-08-17T09:35:25.069Z,21.05
2022-08-17T09:38:16.094Z,23.27
2022-08-17T09:40:54.467Z,20.10
2022-08-17T09:43:30.818Z,22.23
2022-08-17T09:46:20.249Z,19.90
2022-08-17T09:49:24.611Z,19.20
2022-08-17T09:52:01.058Z,18.63
2022-08-17T09:54:39.135Z,20.15
2022-08-17T09:57:31.808Z,17.67
2022-08-17T10:00:11.290Z,19.88
2022-08-17T10:03:03.022Z,19.17
2022-08-17T10:05:56.735Z,18.43
2022-08-17T10:08:44.631Z,16.38
2022-08-17T10:11:48.322Z,14.63
2022-08-17T10:14:53.657Z,14.85
2022-08-17T10:17:30.089Z,15.60
2022-08-17T10:20:15.157Z,14.63
2022-08-17T10:23:15.612Z,14.13
2022-08-17T10:26:07.121Z,14.82
2022-08-17T10:28:39.432Z,13.93
2022-08-17T10:34:25.185Z,14.30
2022-08-17T10:37:16.654Z,15.65
2022-08-17T10:39:53.046Z,14.70
2022-08-17T10:42:48.860Z,15.65
2022-08-17T10:45:26.375Z,15.98
2022-08-17T10:48:04.645Z,14.27
2022-08-17T10:50:50.525Z,15.25
2022-08-17T10:53:32.446Z,16.10
2022-08-17T10:56:14.019Z,16.20
2022-08-17T10:58:58.698Z,14.75
2022-08-17T11:01:34.522Z,13.83
2022-08-17T11:04:26.010Z,15.80
2022-08-17T11:07:29.544Z,16.42
2022-08-17T11:10:16.971Z,18.75
2022-08-17T11:13:01.455Z,17.52
2022-08-17T11:15:31.299Z,17.87
2022-08-17T11:18:07.627Z,17.88
2022-08-17T11:20:45.556Z,18.98
2022-08-17T11:23:30.378Z,20.25
2022-08-17T11:26:03.968Z,21.50
2022-08-17T11:28:35.867Z,20.83
2022-08-17T11:31:09.121Z,21.67
2022-08-17T11:33:36.620Z,21.10
2022-08-17T11:36:29.435Z,23.25
2022-08-17T11:39:02.634Z,22.13
2022-08-17T11:41:56.531Z,23.17
2022-08-17T11:45:02.608Z,24.20
2022-08-17T11:48:23.594Z,22.85
2022-08-17T11:51:08.735Z,23.80
2022-08-17T11:53:37.971Z,24.85
2022-08-17T11:56:30.278Z,25.47
2022-08-17T11:58:56.823Z,24.02
2022-08-17T12:01:23.272Z,25.27
2022-08-17T12:03:55.915Z,24.08
2022-08-17T12:06:30.437Z,23.70
2022-08-17T12:09:17.406Z,22.80
2022-08-17T12:12:11.276Z,24.15
2022-08-17T12:15:08.257Z,24.70
2022-08-17T12:17:40.716Z,23.52
2022-08-17T12:20:22.077Z,23.80
2022-08-17T12:23:04.016Z,25.97
2022-08-17T12:25:37.499Z,22.33
2022-08-17T12:28:19.862Z,21.38
2022-08-17T12:30:52.016Z,21.42
2022-08-17T12:33:25.395Z,21.90
2022-08-17T12:36:05.057Z,24.77
2022-08-17T12:38:34.772Z,25.17
2022-08-17T12:41:22.744Z,23.05
2022-08-17T12:43:58.595Z,24.55
2022-08-17T12:46:25.129Z,24.75
2022-08-17T12:48:59.127Z,25.73
2022-08-17T12:51:25.995Z,24.85
2022-08-17T12:53:54.872Z,27.40
2022-08-17T12:56:21.617Z,30.55
2022-08-17T12:58:54.377Z,27.13
2022-08-17T13:01:23.346Z,26.97
2022-08-17T13:03:53.657Z,27.17
2022-08-17T13:06:30.217Z,26.55
2022-08-17T13:08:56.905Z,29.35
2022-08-17T13:11:25.407Z,28.20
2022-08-17T13:13:56.099Z,33.70
2022-08-17T13:16:26.864Z,31.48
2022-08-17T13:18:59.205Z,31.67
2022-08-17T13:21:30.539Z,32.72
2022-08-17T13:24:02.691Z,34.83
2022-08-17T13:26:36.735Z,33.87
2022-08-17T13:29:28.648Z,30.40
2022-08-17T13:32:14.018Z,34.42
2022-08-17T13:35:12.922Z,33.55
2022-08-17T13:37:57.743Z,31.58
2022-08-17T13:40:37.246Z,32.27
2022-08-17T13:43:05.336Z,30.95
2022-08-17T13:45:43.493Z,30.90
2022-08-17T13:48:17.065Z,35.40
2022-08-17T13:50:55.398Z,30.95
2022-08-17T13:53:25.502Z,33.53
2022-08-17T13:55:56.095Z,30.10
2022-08-17T13:58:26.643Z,30.77
2022-08-17T14:00:54.335Z,33.47
2022-08-17T14:03:20.996Z,31.42
2022-08-17T14:05:50.177Z,31.00
2022-08-17T14:08:20.676Z,31.85
2022-08-17T14:10:58.267Z,33.60
2022-08-17T14:13:24.826Z,32.17
2022-08-17T14:15:55.038Z,33.42
2022-08-17T14:18:34.277Z,33.00
2022-08-17T14:21:10.204Z,30.83
2022-08-17T14:23:37.783Z,31.50
2022-08-17T14:26:04.737Z,32.97
2022-08-17T14:28:32.076Z,29.92
2022-08-17T14:30:59.955Z,30.80
2022-08-17T14:33:28.102Z,31.52
2022-08-17T14:35:54.812Z,33.28
2022-08-17T14:38:21.387Z,33.55
2022-08-17T14:40:48.336Z,34.42
2022-08-17T14:43:15.805Z,33.53
2022-08-17T14:45:43.218Z,31.88
2022-08-17T14:48:10.172Z,34.60
2022-08-17T14:50:42.265Z,33.65
2022-08-17T14:53:12.053Z,30.65
2022-08-17T14:55:40.404Z,30.60
2022-08-17T14:58:08.724Z,30.90
2022-08-17T15:00:35.907Z,33.75
2022-08-17T15:03:03.359Z,30.20
2022-08-17T15:05:34.132Z,31.55
2022-08-17T15:08:01.931Z,30.13
2022-08-17T15:10:29.451Z,31.33
2022-08-17T15:12:56.377Z,30.00
2022-08-17T15:15:23.985Z,32.83
2022-08-17T15:17:51.645Z,31.27
2022-08-17T15:20:24.836Z,32.07
2022-08-17T15:22:55.657Z,29.60
2022-08-17T15:25:23.260Z,28.73
2022-08-17T15:27:50.226Z,30.67
2022-08-17T15:30:16.890Z,30.10
2022-08-17T15:32:45.861Z,29.27
2022-08-17T15:35:27.288Z,28.30
2022-08-17T15:37:57.341Z,29.48
2022-08-17T15:40:25.024Z,30.05
2022-08-17T15:42:51.634Z,31.67
2022-08-17T15:45:22.521Z,30.13
2022-08-17T15:47:49.005Z,29.60
2022-08-17T15:50:15.572Z,30.42
2022-08-17T15:52:44.860Z,30.42
2022-08-17T15:55:13.425Z,26.98
2022-08-17T15:57:40.602Z,27.63
2022-08-17T16:00:09.308Z,28.02
2022-08-17T16:03:15.060Z,28.10
2022-08-17T16:05:24.973Z,29.95
2022-08-17T16:07:52.915Z,30.30
2022-08-17T16:10:20.983Z,32.97
2022-08-17T16:12:49.089Z,28.27
2022-08-17T16:15:17.110Z,32.47
2022-08-17T16:17:43.767Z,29.85
2022-08-17T16:20:20.579Z,28.92
2022-08-17T16:22:49.613Z,27.97
2022-08-17T16:25:21.666Z,30.05
2022-08-17T16:27:53.383Z,27.77
2022-08-17T16:30:23.142Z,27.75
2022-08-17T16:32:53.861Z,28.27
2022-08-17T16:35:22.472Z,27.90
2022-08-17T16:37:49.207Z,26.58
2022-08-17T16:40:16.938Z,27.90
2022-08-17T16:42:48.361Z,28.27
2022-08-17T16:45:22.213Z,26.00
2022-08-17T16:47:50.090Z,27.13
2022-08-17T16:50:21.032Z,30.98
2022-08-17T16:52:48.601Z,25.17
2022-08-17T16:55:18.734Z,26.70
2022-08-17T16:57:50.080Z,23.45
2022-08-17T17:00:17.818Z,22.73
2022-08-17T17:02:47.289Z,22.88
2022-08-17T17:05:19.959Z,22.05
2022-08-17T17:07:57.702Z,20.42
2022-08-17T17:10:37.263Z,19.98
2022-08-17T17:13:07.635Z,20.83
2022-08-17T17:15:46.283Z,21.98
2022-08-17T17:18:15.443Z,24.58
2022-08-17T17:20:54.597Z,24.27
2022-08-17T17:23:38.054Z,25.35
2022-08-17T17:26:17.009Z,24.17
2022-08-17T17:29:07.999Z,31.17
2022-08-17T17:31:45.145Z,24.70
2022-08-17T17:34:16.047Z,23.85
2022-08-17T17:36:57.842Z,23.35
2022-08-17T17:39:52.521Z,22.73
2022-08-17T17:42:22.146Z,24.70
2022-08-17T17:45:03.466Z,25.85
2022-08-17T17:47:31.677Z,25.60
2022-08-17T17:50:00.890Z,25.73
2022-08-17T17:52:40.954Z,26.20
2022-08-17T17:55:33.336Z,25.80
2022-08-17T17:58:19.601Z,23.70
2022-08-17T18:00:58.212Z,25.25
2022-08-17T18:03:42.814Z,27.77
2022-08-17T18:06:18.641Z,26.63
2022-08-17T18:09:18.157Z,26.60
2022-08-17T18:12:10.897Z,23.05
2022-08-17T18:14:55.148Z,26.30
2022-08-17T18:17:22.170Z,25.98
2022-08-17T18:19:48.843Z,25.90
2022-08-17T18:22:18.922Z,25.98
2022-08-17T18:24:55.839Z,27.75
2022-08-17T18:27:37.528Z,25.63
2022-08-17T18:30:13.140Z,29.27
2022-08-17T18:32:43.599Z,29.47
2022-08-17T18:35:10.325Z,30.63
2022-08-17T18:38:20.416Z,29.48
2022-08-17T18:40:58.088Z,32.53
2022-08-17T18:43:44.090Z,31.88
2022-08-17T18:46:28.584Z,28.03
2022-08-17T18:49:28.226Z,27.20
2022-08-17T18:52:24.268Z,29.42
2022-08-17T18:55:23.547Z,27.58
2022-08-17T18:57:52.864Z,35.30
2022-08-17T19:00:36.938Z,32.67
2022-08-17T19:03:18.825Z,37.03
2022-08-17T19:05:50.876Z,33.53
2022-08-17T19:08:29.721Z,37.65
2022-08-17T19:11:26.103Z,52.22
2022-08-17T19:14:02.063Z,36.03
2022-08-17T19:16:45.875Z,37.33
2022-08-17T19:19:32.107Z,39.42
2022-08-17T19:22:13.680Z,42.53
2022-08-17T19:24:58.159Z,41.80
2022-08-17T19:28:01.604Z,38.30
2022-08-17T19:30:29.994Z,38.30
2022-08-17T19:32:58.414Z,43.47
2022-08-17T19:35:39.213Z,38.17
2022-08-17T19:38:19.937Z,37.10
2022-08-17T19:41:07.617Z,40.20
2022-08-17T19:43:37.909Z,42.55
2022-08-17T19:46:25.912Z,37.03
2022-08-17T19:48:57.042Z,40.58
2022-08-17T19:51:40.562Z,35.78
2022-08-17T19:54:15.056Z,37.53
2022-08-17T19:56:56.525Z,38.03
2022-08-17T19:59:48.833Z,31.88
2022-08-17T20:02:41.946Z,31.15
2022-08-17T20:05:21.460Z,31.67
2022-08-17T20:08:08.538Z,35.23
2022-08-17T20:10:47.370Z,34.30
2022-08-17T20:13:33.270Z,36.72
2022-08-17T20:16:01.449Z,38.35
2022-08-17T20:18:38.061Z,36.45
2022-08-17T20:21:19.849Z,35.40
2022-08-17T20:23:58.025Z,35.35
2022-08-17T20:26:37.222Z,33.72
2022-08-17T20:29:15.318Z,34.35
2022-08-17T20:31:54.030Z,31.25
2022-08-17T20:34:33.684Z,33.50
2022-08-17T20:37:12.455Z,32.35
2022-08-17T20:39:42.743Z,26.98
2022-08-17T20:42:15.423Z,27.75
2022-08-17T20:44:43.218Z,27.30
2022-08-17T20:47:27.254Z,28.33
2022-08-17T20:50:33.541Z,31.60
2022-08-17T20:53:03.972Z,34.17
2022-08-17T20:55:52.070Z,35.20
2022-08-17T20:58:25.194Z,32.83
2022-08-17T21:00:57.765Z,35.70
2022-08-17T21:03:24.373Z,31.80
2022-08-17T21:06:00.422Z,35.55
2022-08-17T21:08:35.581Z,31.75
2022-08-17T21:11:58.237Z,30.05
2022-08-17T21:14:33.223Z,30.53
2022-08-17T21:17:29.671Z,31.45
2022-08-17T21:20:12.733Z,30.15
2022-08-17T21:22:45.375Z,37.10
2022-08-17T21:25:37.141Z,35.40
2022-08-17T21:28:21.010Z,32.23
2022-08-17T21:30:59.171Z,33.17
2022-08-17T21:33:31.550Z,31.08
2022-08-17T21:36:11.453Z,32.72
2022-08-17T21:38:57.402Z,31.77
2022-08-17T21:41:34.263Z,36.07
2022-08-17T21:44:30.586Z,34.88
2022-08-17T21:47:23.632Z,30.65
2022-08-17T21:49:54.985Z,34.58
2022-08-17T21:52:24.487Z,32.50
2022-08-17T21:54:58.511Z,33.83
2022-08-17T21:57:27.901Z,31.25
2022-08-17T22:00:01.440Z,31.88
2022-08-17T22:02:35.057Z,31.27
2022-08-17T22:05:06.689Z,30.17
2022-08-17T22:08:21.913Z,26.90
2022-08-17T22:10:51.277Z,29.73
2022-08-17T22:13:17.949Z,29.85
2022-08-17T22:16:29.414Z,30.83
2022-08-17T22:18:58.823Z,28.27
2022-08-17T22:21:26.107Z,24.47
2022-08-17T22:24:24.624Z,29.40
2022-08-17T22:27:11.479Z,24.73
2022-08-17T22:29:57.149Z,27.85
2022-08-17T22:32:51.305Z,24.45
2022-08-17T22:35:17.740Z,23.97
2022-08-17T22:37:44.398Z,26.48
2022-08-17T22:40:24.826Z,26.88
2022-08-17T22:42:51.625Z,26.58
2022-08-17T22:45:18.135Z,24.02
2022-08-17T22:47:48.792Z,25.10
2022-08-17T22:50:25.932Z,24.25
2022-08-17T22:53:21.972Z,23.25
2022-08-17T22:56:13.453Z,21.70
2022-08-17T22:59:10.804Z,22.38
2022-08-17T23:01:39.094Z,24.67
2022-08-17T23:04:27.872Z,22.35
2022-08-17T23:06:54.327Z,25.98
2022-08-17T23:09:21.449Z,21.17
2022-08-17T23:11:52.304Z,25.52
2022-08-17T23:14:20.570Z,22.47
2022-08-17T23:16:48.940Z,22.27
2022-08-17T23:19:19.483Z,22.92
2022-08-17T23:21:46.326Z,20.77
2022-08-17T23:24:27.837Z,20.35
2022-08-17T23:26:57.207Z,21.57
2022-08-17T23:29:24.910Z,21.63
2022-08-17T23:31:52.344Z,20.90
2022-08-17T23:34:19.612Z,21.48
2022-08-17T23:36:50.670Z,21.42
2022-08-17T23:39:27.366Z,20.60
2022-08-17T23:41:56.094Z,19.95
2022-08-17T23:44:25.470Z,19.55
2022-08-17T23:46:53.614Z,24.00
2022-08-17T23:49:20.537Z,17.95
2022-08-17T23:51:48.207Z,27.00
2022-08-17T23:54:33.529Z,19.77
2022-08-17T23:57:04.854Z,18.48
2022-08-17T23:59:32.892Z,18.88
